sensor_id;sensor_type;location;lat;lon;timestamp;pressure;altitude;pressure_sealevel;temperature;humidity
7832;BME280;3961;42.058;25.586;2022-11-03T00:01:59;63509.56;;;11.44;92.50
7832;BME280;3961;42.058;25.586;2022-11-03T00:04:25;63513.84;;;11.51;91.91
7832;BME280;3961;42.058;25.586;2022-11-03T00:06:52;63504.81;;;11.45;90.64
7832;BME280;3961;42.058;25.586;2022-11-03T00:09:20;63490.16;;;11.30;92.11
7832;BME280;3961;42.058;25.586;2022-11-03T00:11:47;63516.38;;;11.55;94.35
7832;BME280;3961;42.058;25.586;2022-11-03T00:14:15;63509.78;;;11.47;95.93
7832;BME280;3961;42.058;25.586;2022-11-03T00:16:41;63501.34;;;11.42;97.04
7832;BME280;3961;42.058;25.586;2022-11-03T00:19:08;63494.44;;;11.36;98.12
7832;BME280;3961;42.058;25.586;2022-11-03T00:21:35;63493.28;;;11.35;99.10
7832;BME280;3961;42.058;25.586;2022-11-03T00:24:00;63486.44;;;11.24;99.01
7832;BME280;3961;42.058;25.586;2022-11-03T00:26:31;63505.50;;;11.41;98.53
7832;BME280;3961;42.058;25.586;2022-11-03T00:28:59;63491.53;;;11.33;97.20
7832;BME280;3961;42.058;25.586;2022-11-03T00:31:30;63500.53;;;11.39;93.66
7832;BME280;3961;42.058;25.586;2022-11-03T00:33:57;63481.25;;;11.20;93.01
7832;BME280;3961;42.058;25.586;2022-11-03T00:36:28;63492.13;;;11.34;91.77
7832;BME280;3961;42.058;25.586;2022-11-03T00:38:54;63501.69;;;11.40;90.01
7832;BME280;3961;42.058;25.586;2022-11-03T00:41:21;63484.03;;;11.27;90.23
7832;BME280;3961;42.058;25.586;2022-11-03T00:43:47;63489.56;;;11.29;90.13
7832;BME280;3961;42.058;25.586;2022-11-03T00:46:14;63490.63;;;11.35;89.68
7832;BME280;3961;42.058;25.586;2022-11-03T00:48:40;63505.16;;;11.43;88.64
7832;BME280;3961;42.058;25.586;2022-11-03T00:51:33;63510.38;;;11.48;88.33
7832;BME280;3961;42.058;25.586;2022-11-03T00:54:00;63513.03;;;11.48;87.84
7832;BME280;3961;42.058;25.586;2022-11-03T00:56:37;63508.28;;;11.48;87.70
7832;BME280;3961;42.058;25.586;2022-11-03T00:59:04;63528.66;;;11.61;86.27
7832;BME280;3961;42.058;25.586;2022-11-03T01:01:35;63521.59;;;11.60;86.67
7832;BME280;3961;42.058;25.586;2022-11-03T01:04:01;63533.50;;;11.68;85.04
7832;BME280;3961;42.058;25.586;2022-11-03T01:06:48;63545.41;;;11.76;84.15
7832;BME280;3961;42.058;25.586;2022-11-03T01:11:50;63541.00;;;11.74;81.32
7832;BME280;3961;42.058;25.586;2022-11-03T01:14:17;63549.94;;;11.85;84.85
7832;BME280;3961;42.058;25.586;2022-11-03T01:16:43;63544.25;;;11.75;86.40
7832;BME280;3961;42.058;25.586;2022-11-03T01:19:08;63544.25;;;11.75;86.67
7832;BME280;3961;42.058;25.586;2022-11-03T01:21:34;63554.69;;;11.84;85.35
7832;BME280;3961;42.058;25.586;2022-11-03T01:24:01;63538.13;;;11.72;86.40
7832;BME280;3961;42.058;25.586;2022-11-03T01:26:28;63545.31;;;11.81;86.79
7832;BME280;3961;42.058;25.586;2022-11-03T01:28:53;63553.53;;;11.83;86.18
7832;BME280;3961;42.058;25.586;2022-11-03T01:31:22;63554.91;;;11.87;83.05
7832;BME280;3961;42.058;25.586;2022-11-03T01:33:51;63575.97;;;12.07;80.09
7832;BME280;3961;42.058;25.586;2022-11-03T01:36:17;63601.09;;;12.32;76.88
7832;BME280;3961;42.058;25.586;2022-11-03T01:38:43;63630.47;;;12.51;75.25
7832;BME280;3961;42.058;25.586;2022-11-03T01:41:17;63622.84;;;12.49;75.04
7832;BME280;3961;42.058;25.586;2022-11-03T01:43:43;63623.53;;;12.44;75.54
7832;BME280;3961;42.058;25.586;2022-11-03T01:46:17;63609.06;;;12.32;77.54
7832;BME280;3961;42.058;25.586;2022-11-03T01:49:34;63571.34;;;12.03;80.04
7832;BME280;3961;42.058;25.586;2022-11-03T01:52:00;63565.56;;;11.98;80.81
7832;BME280;3961;42.058;25.586;2022-11-03T01:54:28;63552.50;;;11.89;81.50
7832;BME280;3961;42.058;25.586;2022-11-03T01:56:55;63544.16;;;11.80;84.04
7832;BME280;3961;42.058;25.586;2022-11-03T01:59:22;63546.91;;;11.75;84.58
7832;BME280;3961;42.058;25.586;2022-11-03T02:01:48;63539.63;;;11.71;85.38
7832;BME280;3961;42.058;25.586;2022-11-03T02:04:21;63516.38;;;11.55;86.71
7832;BME280;3961;42.058;25.586;2022-11-03T02:06:53;63517.06;;;11.51;87.07
7832;BME280;3961;42.058;25.586;2022-11-03T02:09:23;63515.56;;;11.52;86.13
7832;BME280;3961;42.058;25.586;2022-11-03T02:11:49;63530.28;;;11.67;86.34
7832;BME280;3961;42.058;25.586;2022-11-03T02:14:41;63551.22;;;11.81;85.10
7832;BME280;3961;42.058;25.586;2022-11-03T02:17:10;63558.06;;;11.92;84.75
7832;BME280;3961;42.058;25.586;2022-11-03T02:19:57;63571.69;;;12.01;84.52
7832;BME280;3961;42.058;25.586;2022-11-03T02:27:55;63573.66;;;12.05;85.33
7832;BME280;3961;42.058;25.586;2022-11-03T02:30:21;63578.28;;;12.09;84.75
7832;BME280;3961;42.058;25.586;2022-11-03T02:35:56;63571.91;;;12.04;85.17
7832;BME280;3961;42.058;25.586;2022-11-03T02:38:25;63573.66;;;12.05;85.15
7832;BME280;3961;42.058;25.586;2022-11-03T02:40:53;63591.72;;;12.17;83.84
7832;BME280;3961;42.058;25.586;2022-11-03T02:43:21;63572.16;;;12.06;83.75
7832;BME280;3961;42.058;25.586;2022-11-03T02:45:49;63578.88;;;12.10;83.16
7832;BME280;3961;42.058;25.586;2022-11-03T02:48:17;63574.22;;;12.06;84.87
7832;BME280;3961;42.058;25.586;2022-11-03T02:50:43;63603.28;;;12.27;83.34
7832;BME280;3961;42.058;25.586;2022-11-03T02:53:13;63607.91;;;12.31;83.54
7832;BME280;3961;42.058;25.586;2022-11-03T03:03:43;63646.91;;;12.67;80.42
7832;BME280;3961;42.058;25.586;2022-11-03T03:06:08;63645.97;;;12.69;80.84
7832;BME280;3961;42.058;25.586;2022-11-03T03:08:39;63652.13;;;12.72;80.82
7832;BME280;3961;42.058;25.586;2022-11-03T03:11:07;63662.78;;;12.84;79.68
7832;BME280;3961;42.058;25.586;2022-11-03T03:13:35;63645.53;;;12.64;78.53
7832;BME280;3961;42.058;25.586;2022-11-03T03:16:15;63642.28;;;12.63;78.98
7832;BME280;3961;42.058;25.586;2022-11-03T03:18:50;63671.25;;;12.89;79.24
7832;BME280;3961;42.058;25.586;2022-11-03T03:21:22;63659.31;;;12.81;79.50
7832;BME280;3961;42.058;25.586;2022-11-03T03:23:56;63661.97;;;12.81;78.74
7832;BME280;3961;42.058;25.586;2022-11-03T03:26:28;63657.91;;;12.77;79.40
7832;BME280;3961;42.058;25.586;2022-11-03T03:29:02;63620.63;;;12.42;83.00
7832;BME280;3961;42.058;25.586;2022-11-03T03:31:34;63605.38;;;12.26;84.01
7832;BME280;3961;42.058;25.586;2022-11-03T03:34:01;63585.00;;;12.13;84.91
7832;BME280;3961;42.058;25.586;2022-11-03T03:36:29;63571.34;;;12.03;85.97
7832;BME280;3961;42.058;25.586;2022-11-03T03:38:59;63588.47;;;12.16;85.79
7832;BME280;3961;42.058;25.586;2022-11-03T03:41:27;63592.53;;;12.20;85.64
7832;BME280;3961;42.058;25.586;2022-11-03T03:43:59;63587.19;;;12.20;85.02
7832;BME280;3961;42.058;25.586;2022-11-03T03:46:31;63568.47;;;12.01;85.20
7832;BME280;3961;42.058;25.586;2022-11-03T03:48:58;63558.72;;;11.88;84.50
7832;BME280;3961;42.058;25.586;2022-11-03T03:51:26;63558.16;;;11.87;85.82
7832;BME280;3961;42.058;25.586;2022-11-03T03:53:53;63557.00;;;11.86;85.46
7832;BME280;3961;42.058;25.586;2022-11-03T03:56:24;63543.00;;;11.78;85.02
7832;BME280;3961;42.058;25.586;2022-11-03T03:58:51;63557.00;;;11.86;84.75
7832;BME280;3961;42.058;25.586;2022-11-03T04:01:16;63495.81;;;11.39;84.04
7832;BME280;3961;42.058;25.586;2022-11-03T04:03:42;63548.56;;;11.81;84.13
7832;BME280;3961;42.058;25.586;2022-11-03T04:06:08;63571.56;;;12.06;83.19
7832;BME280;3961;42.058;25.586;2022-11-03T04:08:33;63587.06;;;12.13;83.72
7832;BME280;3961;42.058;25.586;2022-11-03T04:10:59;63597.16;;;12.24;83.32
7832;BME280;3961;42.058;25.586;2022-11-03T04:13:43;63570.19;;;12.02;83.18
7832;BME280;3961;42.058;25.586;2022-11-03T04:16:27;63604.34;;;12.32;83.05
7832;BME280;3961;42.058;25.586;2022-11-03T04:19:11;63604.09;;;12.30;83.23
7832;BME280;3961;42.058;25.586;2022-11-03T04:21:54;63594.59;;;12.19;83.38
7832;BME280;3961;42.058;25.586;2022-11-03T04:24:38;63594.84;;;12.22;83.42
7832;BME280;3961;42.058;25.586;2022-11-03T04:27:32;63602.72;;;12.26;83.21
7832;BME280;3961;42.058;25.586;2022-11-03T04:30:17;63606.19;;;12.29;82.44
7832;BME280;3961;42.058;25.586;2022-11-03T04:32:45;63558.38;;;11.90;84.96
7832;BME280;3961;42.058;25.586;2022-11-03T04:35:21;63538.94;;;11.75;86.51
7832;BME280;3961;42.058;25.586;2022-11-03T04:37:53;63528.31;;;11.63;87.39
7832;BME280;3961;42.058;25.586;2022-11-03T04:40:21;63512.91;;;11.52;87.77
7832;BME280;3961;42.058;25.586;2022-11-03T04:42:47;63505.50;;;11.41;88.98
7832;BME280;3961;42.058;25.586;2022-11-03T04:45:18;63490.63;;;11.35;90.00
7832;BME280;3961;42.058;25.586;2022-11-03T04:47:45;63469.22;;;11.16;91.37
7832;BME280;3961;42.058;25.586;2022-11-03T04:50:17;63476.50;;;11.20;91.11
7832;BME280;3961;42.058;25.586;2022-11-03T04:52:45;63476.38;;;11.13;90.56
7832;BME280;3961;42.058;25.586;2022-11-03T04:55:14;63477.09;;;11.21;88.27
7832;BME280;3961;42.058;25.586;2022-11-03T04:57:39;63473.03;;;11.17;88.14
7832;BME280;3961;42.058;25.586;2022-11-03T05:00:06;63466.09;;;11.11;88.68
7832;BME280;3961;42.058;25.586;2022-11-03T05:02:32;63473.72;;;11.13;87.90
7832;BME280;3961;42.058;25.586;2022-11-03T05:04:58;63458.13;;;10.99;88.30
7832;BME280;3961;42.058;25.586;2022-11-03T05:07:41;63470.72;;;11.15;88.05
7832;BME280;3961;42.058;25.586;2022-11-03T05:10:12;63489.00;;;11.29;87.98
7832;BME280;3961;42.058;25.586;2022-11-03T05:12:40;63502.50;;;11.43;87.49
7832;BME280;3961;42.058;25.586;2022-11-03T05:15:13;63519.63;;;11.56;86.15
7832;BME280;3961;42.058;25.586;2022-11-03T05:17:48;63519.28;;;11.58;85.92
7832;BME280;3961;42.058;25.586;2022-11-03T05:20:50;63535.47;;;11.72;86.15
7832;BME280;3961;42.058;25.586;2022-11-03T05:23:18;63545.09;;;11.78;86.58
7832;BME280;3961;42.058;25.586;2022-11-03T05:25:47;63555.84;;;11.85;85.02
7832;BME280;3961;42.058;25.586;2022-11-03T05:28:36;63557.81;;;11.89;85.39
7832;BME280;3961;42.058;25.586;2022-11-03T05:31:15;63565.81;;;12.01;84.30
7832;BME280;3961;42.058;25.586;2022-11-03T05:33:45;63558.06;;;11.92;83.89
7832;BME280;3961;42.058;25.586;2022-11-03T05:36:18;63587.88;;;12.16;83.59
7832;BME280;3961;42.058;25.586;2022-11-03T05:38:44;63578.63;;;12.07;83.04
7832;BME280;3961;42.058;25.586;2022-11-03T05:41:18;63572.50;;;12.04;82.14
7832;BME280;3961;42.058;25.586;2022-11-03T05:43:57;63582.69;;;12.11;81.88
7832;BME280;3961;42.058;25.586;2022-11-03T05:46:27;63597.50;;;12.22;81.99
7832;BME280;3961;42.058;25.586;2022-11-03T05:48:53;63604.09;;;12.30;82.24
7832;BME280;3961;42.058;25.586;2022-11-03T05:51:24;63614.16;;;12.41;81.78
7832;BME280;3961;42.058;25.586;2022-11-03T05:53:55;63632.22;;;12.52;80.55
7832;BME280;3961;42.058;25.586;2022-11-03T05:56:23;63643.47;;;12.64;80.20
7832;BME280;3961;42.058;25.586;2022-11-03T05:58:51;63657.56;;;12.79;78.61
7832;BME280;3961;42.058;25.586;2022-11-03T06:03:45;63664.88;;;12.83;78.75
7832;BME280;3961;42.058;25.586;2022-11-03T06:06:24;63669.59;;;12.83;79.35
7832;BME280;3961;42.058;25.586;2022-11-03T06:08:50;63679.13;;;12.93;78.60
7832;BME280;3961;42.058;25.586;2022-11-03T06:11:35;63699.38;;;13.11;78.42
7832;BME280;3961;42.058;25.586;2022-11-03T06:14:01;63706.59;;;13.20;78.31
7832;BME280;3961;42.058;25.586;2022-11-03T06:17:00;63715.28;;;13.27;76.82
7832;BME280;3961;42.058;25.586;2022-11-03T06:19:41;63719.34;;;13.31;77.10
7832;BME280;3961;42.058;25.586;2022-11-03T06:22:21;63730.31;;;13.40;76.96
7832;BME280;3961;42.058;25.586;2022-11-03T06:25:00;63746.22;;;13.57;75.94
7832;BME280;3961;42.058;25.586;2022-11-03T06:27:33;63748.28;;;13.56;75.61
7832;BME280;3961;42.058;25.586;2022-11-03T06:30:01;63761.63;;;13.68;75.33
7832;BME280;3961;42.058;25.586;2022-11-03T06:32:27;63740.41;;;13.52;75.30
7832;BME280;3961;42.058;25.586;2022-11-03T06:34:57;63749.47;;;13.57;75.57
7832;BME280;3961;42.058;25.586;2022-11-03T06:37:33;63770.31;;;13.75;75.23
7832;BME280;3961;42.058;25.586;2022-11-03T06:42:44;63741.69;;;13.48;75.06
7832;BME280;3961;42.058;25.586;2022-11-03T06:45:15;63760.44;;;13.67;74.14
7832;BME280;3961;42.058;25.586;2022-11-03T06:47:43;63763.59;;;13.72;73.32
7832;BME280;3961;42.058;25.586;2022-11-03T06:50:22;63769.72;;;13.75;73.46
7832;BME280;3961;42.058;25.586;2022-11-03T06:52:50;63795.47;;;14.00;72.24
7832;BME280;3961;42.058;25.586;2022-11-03T06:55:22;63810.66;;;14.08;71.84
7832;BME280;3961;42.058;25.586;2022-11-03T06:57:52;63820.16;;;14.19;70.98
7832;BME280;3961;42.058;25.586;2022-11-03T07:00:28;63842.09;;;14.43;70.65
7832;BME280;3961;42.058;25.586;2022-11-03T07:05:28;63857.53;;;14.54;70.17
7832;BME280;3961;42.058;25.586;2022-11-03T07:07:57;63859.97;;;14.52;70.43
7832;BME280;3961;42.058;25.586;2022-11-03T07:10:27;63869.47;;;14.62;69.78
7832;BME280;3961;42.058;25.586;2022-11-03T07:12:54;63944.22;;;15.32;71.73
7832;BME280;3961;42.058;25.586;2022-11-03T07:15:38;64035.19;;;16.09;67.70
7832;BME280;3961;42.058;25.586;2022-11-03T07:18:18;64170.22;;;17.23;67.33
7832;BME280;3961;42.058;25.586;2022-11-03T07:20:46;64168.34;;;17.26;61.05
7832;BME280;3961;42.058;25.586;2022-11-03T07:23:14;64168.50;;;17.21;63.49
7832;BME280;3961;42.058;25.586;2022-11-03T07:25:44;64167.91;;;17.21;61.77
7832;BME280;3961;42.058;25.586;2022-11-03T07:28:12;64197.81;;;17.49;61.99
7832;BME280;3961;42.058;25.586;2022-11-03T07:30:37;64227.75;;;17.77;60.83
7832;BME280;3961;42.058;25.586;2022-11-03T07:33:19;64314.28;;;18.51;59.14
7832;BME280;3961;42.058;25.586;2022-11-03T07:35:47;64330.59;;;18.65;58.25
7832;BME280;3961;42.058;25.586;2022-11-03T07:38:15;64355.06;;;18.86;55.45
7832;BME280;3961;42.058;25.586;2022-11-03T07:40:42;64375.25;;;19.01;55.38
7832;BME280;3961;42.058;25.586;2022-11-03T07:43:21;64396.69;;;19.25;54.83
7832;BME280;3961;42.058;25.586;2022-11-03T07:45:58;64452.47;;;19.71;53.84
7832;BME280;3961;42.058;25.586;2022-11-03T07:48:33;64469.38;;;19.86;55.25
7832;BME280;3961;42.058;25.586;2022-11-03T07:51:10;64527.75;;;20.36;53.14
7832;BME280;3961;42.058;25.586;2022-11-03T07:53:47;64469.03;;;19.88;51.48
7832;BME280;3961;42.058;25.586;2022-11-03T07:58:43;64486.09;;;19.98;53.55
7832;BME280;3961;42.058;25.586;2022-11-03T08:01:31;64527.41;;;20.38;50.34
7832;BME280;3961;42.058;25.586;2022-11-03T08:04:06;64559.88;;;20.64;51.53
7832;BME280;3961;42.058;25.586;2022-11-03T08:06:32;64520.97;;;20.33;50.05
7832;BME280;3961;42.058;25.586;2022-11-03T08:08:59;64537.69;;;20.45;50.43
7832;BME280;3961;42.058;25.586;2022-11-03T08:11:24;64564.69;;;20.64;49.23
7832;BME280;3961;42.058;25.586;2022-11-03T08:13:50;64585.91;;;20.85;49.47
7832;BME280;3961;42.058;25.586;2022-11-03T08:16:17;64599.38;;;20.96;48.88
7832;BME280;3961;42.058;25.586;2022-11-03T08:18:43;64625.06;;;21.19;48.09
7832;BME280;3961;42.058;25.586;2022-11-03T08:21:09;64670.06;;;21.58;48.73
7832;BME280;3961;42.058;25.586;2022-11-03T08:23:34;64671.47;;;21.61;47.47
7832;BME280;3961;42.058;25.586;2022-11-03T08:26:00;64666.22;;;21.57;47.61
7832;BME280;3961;42.058;25.586;2022-11-03T08:28:26;64693.84;;;21.76;45.88
7832;BME280;3961;42.058;25.586;2022-11-03T08:30:52;64717.69;;;22.01;46.41
7832;BME280;3961;42.058;25.586;2022-11-03T08:33:18;64700.81;;;21.82;45.92
7832;BME280;3961;42.058;25.586;2022-11-03T08:35:43;64727.41;;;22.07;45.49
7832;BME280;3961;42.058;25.586;2022-11-03T08:38:09;64746.69;;;22.24;46.04
7832;BME280;3961;42.058;25.586;2022-11-03T08:40:34;64789.75;;;22.59;45.17
7832;BME280;3961;42.058;25.586;2022-11-03T08:43:00;64746.09;;;22.24;44.00
7832;BME280;3961;42.058;25.586;2022-11-03T08:45:30;64633.50;;;21.28;45.47
7832;BME280;3961;42.058;25.586;2022-11-03T08:47:55;64610.09;;;21.08;45.65
7832;BME280;3961;42.058;25.586;2022-11-03T08:50:21;64557.66;;;20.58;47.09
7832;BME280;3961;42.058;25.586;2022-11-03T08:52:47;64506.13;;;20.18;48.70
7832;BME280;3961;42.058;25.586;2022-11-03T08:55:14;64492.50;;;20.03;49.03
7832;BME280;3961;42.058;25.586;2022-11-03T08:57:39;64531.63;;;20.37;48.40
7832;BME280;3961;42.058;25.586;2022-11-03T09:00:05;64545.03;;;20.49;48.38
7832;BME280;3961;42.058;25.586;2022-11-03T09:02:32;64578.56;;;20.80;47.49
7832;BME280;3961;42.058;25.586;2022-11-03T09:04:57;64554.63;;;20.60;47.73
7832;BME280;3961;42.058;25.586;2022-11-03T09:07:23;64583.00;;;20.82;47.40
7832;BME280;3961;42.058;25.586;2022-11-03T09:09:49;64614.56;;;21.09;46.99
7832;BME280;3961;42.058;25.586;2022-11-03T09:12:14;64687.63;;;21.73;46.34
7832;BME280;3961;42.058;25.586;2022-11-03T09:14:40;64699.88;;;21.84;45.27
7832;BME280;3961;42.058;25.586;2022-11-03T09:17:06;64710.41;;;21.93;44.56
7832;BME280;3961;42.058;25.586;2022-11-03T09:19:31;64699.53;;;21.86;45.06
7832;BME280;3961;42.058;25.586;2022-11-03T09:21:57;64709.25;;;21.92;44.49
7832;BME280;3961;42.058;25.586;2022-11-03T09:24:24;64731.69;;;22.13;44.70
7832;BME280;3961;42.058;25.586;2022-11-03T09:26:50;64750.56;;;22.25;44.20
7832;BME280;3961;42.058;25.586;2022-11-03T09:29:16;64796.63;;;22.70;43.85
7832;BME280;3961;42.058;25.586;2022-11-03T09:31:41;64811.88;;;22.83;43.41
7832;BME280;3961;42.058;25.586;2022-11-03T09:34:07;64827.44;;;22.94;42.83
7832;BME280;3961;42.058;25.586;2022-11-03T09:36:32;64859.28;;;23.24;41.63
7832;BME280;3961;42.058;25.586;2022-11-03T09:38:58;64902.78;;;23.57;42.21
7832;BME280;3961;42.058;25.586;2022-11-03T09:41:24;64924.66;;;23.78;39.89
7832;BME280;3961;42.058;25.586;2022-11-03T09:43:50;64888.91;;;23.48;40.50
7832;BME280;3961;42.058;25.586;2022-11-03T09:46:16;64920.78;;;23.77;41.44
7832;BME280;3961;42.058;25.586;2022-11-03T09:48:42;64937.34;;;23.87;39.51
7832;BME280;3961;42.058;25.586;2022-11-03T09:51:17;64936.38;;;23.89;40.27
7832;BME280;3961;42.058;25.586;2022-11-03T09:53:43;64954.53;;;24.04;40.02
7832;BME280;3961;42.058;25.586;2022-11-03T09:56:09;64953.97;;;24.04;39.11
7832;BME280;3961;42.058;25.586;2022-11-03T09:58:35;64957.91;;;24.12;38.35
7832;BME280;3961;42.058;25.586;2022-11-03T10:01:01;64983.28;;;24.29;38.18
7832;BME280;3961;42.058;25.586;2022-11-03T10:03:27;64994.03;;;24.41;39.25
7832;BME280;3961;42.058;25.586;2022-11-03T10:05:53;64999.69;;;24.43;38.37
7832;BME280;3961;42.058;25.586;2022-11-03T10:08:29;65004.38;;;24.48;37.70
7832;BME280;3961;42.058;25.586;2022-11-03T10:10:56;64993.81;;;24.38;39.26
7832;BME280;3961;42.058;25.586;2022-11-03T10:13:26;64980.94;;;24.27;38.49
7832;BME280;3961;42.058;25.586;2022-11-03T10:15:53;64882.91;;;23.47;39.60
7832;BME280;3961;42.058;25.586;2022-11-03T10:18:18;64917.44;;;23.70;40.01
7832;BME280;3961;42.058;25.586;2022-11-03T10:20:44;64950.44;;;24.01;40.02
7832;BME280;3961;42.058;25.586;2022-11-03T10:23:10;64980.94;;;24.27;39.92
7832;BME280;3961;42.058;25.586;2022-11-03T10:25:38;64996.75;;;24.41;38.83
7832;BME280;3961;42.058;25.586;2022-11-03T10:28:24;65024.91;;;24.65;39.10
7832;BME280;3961;42.058;25.586;2022-11-03T10:31:03;64991.69;;;24.39;38.45
7832;BME280;3961;42.058;25.586;2022-11-03T10:33:39;64971.75;;;24.22;39.38
7832;BME280;3961;42.058;25.586;2022-11-03T10:38:40;65018.66;;;24.62;38.52
7832;BME280;3961;42.058;25.586;2022-11-03T10:41:18;65059.28;;;24.93;39.01
7832;BME280;3961;42.058;25.586;2022-11-03T10:46:23;65125.22;;;25.52;37.12
7832;BME280;3961;42.058;25.586;2022-11-03T10:49:18;65136.53;;;25.57;36.96
7832;BME280;3961;42.058;25.586;2022-11-03T10:51:46;65148.13;;;25.72;37.03
7832;BME280;3961;42.058;25.586;2022-11-03T10:54:14;65154.38;;;25.75;36.88
7832;BME280;3961;42.058;25.586;2022-11-03T10:56:42;65124.41;;;25.49;37.32
7832;BME280;3961;42.058;25.586;2022-11-03T10:59:17;65011.78;;;24.52;38.33
7832;BME280;3961;42.058;25.586;2022-11-03T11:01:43;64948.31;;;24.01;39.29
7832;BME280;3961;42.058;25.586;2022-11-03T11:04:13;64917.03;;;23.72;39.76
7832;BME280;3961;42.058;25.586;2022-11-03T11:06:39;64882.25;;;23.39;40.47
7832;BME280;3961;42.058;25.586;2022-11-03T11:09:11;64881.09;;;23.38;40.73
7832;BME280;3961;42.058;25.586;2022-11-03T11:11:37;64847.34;;;23.11;41.81
7832;BME280;3961;42.058;25.586;2022-11-03T11:16:53;64854.38;;;23.18;41.39
7832;BME280;3961;42.058;25.586;2022-11-03T11:19:21;64833.91;;;23.00;41.30
7832;BME280;3961;42.058;25.586;2022-11-03T11:33:11;64929.13;;;23.80;39.53
7832;BME280;3961;42.058;25.586;2022-11-03T11:41:05;64964.50;;;24.13;40.03
7832;BME280;3961;42.058;25.586;2022-11-03T11:43:31;64975.06;;;24.22;39.92
7832;BME280;3961;42.058;25.586;2022-11-03T11:49:13;64912.38;;;23.68;39.54
7832;BME280;3961;42.058;25.586;2022-11-03T11:51:40;64873.69;;;23.34;40.21
7832;BME280;3961;42.058;25.586;2022-11-03T11:54:11;64871.34;;;23.32;40.21
7832;BME280;3961;42.058;25.586;2022-11-03T11:56:43;64880.50;;;23.38;40.36
7832;BME280;3961;42.058;25.586;2022-11-03T11:59:18;64918.22;;;23.73;40.33
7832;BME280;3961;42.058;25.586;2022-11-03T12:01:49;64954.34;;;24.02;39.74
7832;BME280;3961;42.058;25.586;2022-11-03T12:04:23;64955.34;;;24.07;39.86
7832;BME280;3961;42.058;25.586;2022-11-03T12:06:50;64955.94;;;24.08;39.01
7832;BME280;3961;42.058;25.586;2022-11-03T12:09:20;64925.47;;;23.82;40.09
7832;BME280;3961;42.058;25.586;2022-11-03T12:11:47;64970.72;;;24.16;39.61
7832;BME280;3961;42.058;25.586;2022-11-03T12:17:29;65013.19;;;24.55;38.41
7832;BME280;3961;42.058;25.586;2022-11-03T12:24:52;64933.66;;;23.89;39.70
7832;BME280;3961;42.058;25.586;2022-11-03T12:27:19;64901.59;;;23.56;39.98
7832;BME280;3961;42.058;25.586;2022-11-03T12:29:45;64873.69;;;23.34;40.23
7832;BME280;3961;42.058;25.586;2022-11-03T12:32:11;64887.75;;;23.46;41.57
7832;BME280;3961;42.058;25.586;2022-11-03T12:34:36;64887.97;;;23.49;41.67
7832;BME280;3961;42.058;25.586;2022-11-03T12:37:02;64901.03;;;23.56;42.61
7832;BME280;3961;42.058;25.586;2022-11-03T12:39:27;64909.22;;;23.63;42.79
7832;BME280;3961;42.058;25.586;2022-11-03T12:41:53;64894.78;;;23.53;41.05
7832;BME280;3961;42.058;25.586;2022-11-03T12:44:19;64906.50;;;23.63;42.13
7832;BME280;3961;42.058;25.586;2022-11-03T12:46:44;64909.44;;;23.65;41.27
7832;BME280;3961;42.058;25.586;2022-11-03T12:49:10;64938.13;;;23.90;42.80
7832;BME280;3961;42.058;25.586;2022-11-03T12:51:35;64938.50;;;23.88;40.48
7832;BME280;3961;42.058;25.586;2022-11-03T12:54:01;64913.53;;;23.69;40.01
7832;BME280;3961;42.058;25.586;2022-11-03T12:56:26;64897.13;;;23.55;40.73
7832;BME280;3961;42.058;25.586;2022-11-03T12:58:52;64886.56;;;23.45;41.52
7832;BME280;3961;42.058;25.586;2022-11-03T13:01:17;64906.28;;;23.60;40.65
7832;BME280;3961;42.058;25.586;2022-11-03T13:03:43;64887.97;;;23.49;40.82
7832;BME280;3961;42.058;25.586;2022-11-03T13:06:09;64874.28;;;23.35;40.69
7832;BME280;3961;42.058;25.586;2022-11-03T13:08:36;64877.81;;;23.38;40.35
7832;BME280;3961;42.058;25.586;2022-11-03T13:11:02;64858.47;;;23.21;40.99
7832;BME280;3961;42.058;25.586;2022-11-03T13:13:28;64847.34;;;23.11;41.31
7832;BME280;3961;42.058;25.586;2022-11-03T13:15:53;64848.28;;;23.10;41.31
7832;BME280;3961;42.058;25.586;2022-11-03T13:18:20;64882.25;;;23.39;41.73
7832;BME280;3961;42.058;25.586;2022-11-03T13:20:46;64902.63;;;23.62;40.24
7832;BME280;3961;42.058;25.586;2022-11-03T13:23:12;64922.53;;;23.79;41.21
7832;BME280;3961;42.058;25.586;2022-11-03T13:25:37;64929.56;;;23.85;39.95
7832;BME280;3961;42.058;25.586;2022-11-03T13:28:03;64872.31;;;23.31;40.05
7832;BME280;3961;42.058;25.586;2022-11-03T13:30:29;64839.16;;;23.04;40.26
7832;BME280;3961;42.058;25.586;2022-11-03T13:32:56;64804.81;;;22.77;40.85
7832;BME280;3961;42.058;25.586;2022-11-03T13:35:22;64795.03;;;22.64;41.30
7832;BME280;3961;42.058;25.586;2022-11-03T13:37:48;64777.09;;;22.51;41.90
7832;BME280;3961;42.058;25.586;2022-11-03T13:40:14;64771.25;;;22.45;41.65
7832;BME280;3961;42.058;25.586;2022-11-03T13:42:40;64797.94;;;22.66;42.42
7832;BME280;3961;42.058;25.586;2022-11-03T13:45:07;64780.63;;;22.54;41.96
7832;BME280;3961;42.058;25.586;2022-11-03T13:47:33;64770.28;;;22.47;41.62
7832;BME280;3961;42.058;25.586;2022-11-03T13:49:59;64757.81;;;22.34;41.71
7832;BME280;3961;42.058;25.586;2022-11-03T13:52:26;64743.75;;;22.22;42.24
7832;BME280;3961;42.058;25.586;2022-11-03T13:54:51;64754.06;;;22.28;42.18
7832;BME280;3961;42.058;25.586;2022-11-03T13:57:17;64735.00;;;22.14;42.01
7832;BME280;3961;42.058;25.586;2022-11-03T13:59:43;64755.25;;;22.29;42.66
7832;BME280;3961;42.058;25.586;2022-11-03T14:02:09;64737.31;;;22.16;42.05
7832;BME280;3961;42.058;25.586;2022-11-03T14:04:35;64724.69;;;22.07;42.51
7832;BME280;3961;42.058;25.586;2022-11-03T14:07:06;64730.53;;;22.12;42.10
7832;BME280;3961;42.058;25.586;2022-11-03T14:09:31;64747.63;;;22.23;41.88
7832;BME280;3961;42.058;25.586;2022-11-03T14:11:57;64751.97;;;22.29;41.54
7832;BME280;3961;42.058;25.586;2022-11-03T14:14:41;64757.44;;;22.36;41.70
7832;BME280;3961;42.058;25.586;2022-11-03T14:17:07;64729.72;;;22.09;41.42
7832;BME280;3961;42.058;25.586;2022-11-03T14:19:33;64744.34;;;22.22;41.99
7832;BME280;3961;42.058;25.586;2022-11-03T14:21:59;64741.41;;;22.20;41.86
7832;BME280;3961;42.058;25.586;2022-11-03T14:24:25;64728.78;;;22.11;42.00
7832;BME280;3961;42.058;25.586;2022-11-03T14:26:50;64718.25;;;22.02;42.37
7832;BME280;3961;42.058;25.586;2022-11-03T14:29:16;64703.41;;;21.87;43.34